createdAt,value
2022-09-13T00:02:03.292Z,99858.56
2022-09-13T00:04:31.059Z,99853.12
2022-09-13T00:06:58.475Z,99863.34
2022-09-13T00:09:25.919Z,99873.34
2022-09-13T00:11:53.632Z,99857.13
2022-09-13T00:14:21.037Z,99870.31
2022-09-13T00:16:48.486Z,99863.19
2022-09-13T00:19:16.243Z,99871.13
2022-09-13T00:21:43.617Z,99861.91
2022-09-13T00:24:11.015Z,99864.81
2022-09-13T00:26:38.640Z,99865.28
2022-09-13T00:29:06.015Z,99859.72
2022-09-13T00:31:33.566Z,99854.63
2022-09-13T00:34:01.329Z,99851.13
2022-09-13T00:36:47.535Z,99858.84
2022-09-13T00:39:15.160Z,99861.03
2022-09-13T00:41:42.609Z,99852.12
2022-09-13T00:44:47.280Z,99855.03
2022-09-13T00:47:19.462Z,99854.38
2022-09-13T00:49:48.522Z,99863.37
2022-09-13T00:52:20.139Z,99856.03
2022-09-13T00:54:55.106Z,99852.62
2022-09-13T00:57:24.737Z,99850.53
2022-09-13T01:00:14.067Z,99854.53
2022-09-13T01:02:45.857Z,99849.91
2022-09-13T01:05:15.599Z,99849.59
2022-09-13T01:07:44.051Z,99854.41
2022-09-13T01:10:11.507Z,99851.28
2022-09-13T01:13:15.109Z,99860.66
2022-09-13T01:15:42.778Z,99859.94
2022-09-13T01:18:11.152Z,99857.25
2022-09-13T01:21:15.821Z,99858.31
2022-09-13T01:24:10.142Z,99857.25
2022-09-13T01:27:04.267Z,99859.00
2022-09-13T01:29:59.926Z,99860.25
2022-09-13T01:32:30.502Z,99859.44
2022-09-13T01:35:21.377Z,99852.50
2022-09-13T01:38:01.162Z,99852.09
2022-09-13T01:41:07.906Z,99851.91
2022-09-13T01:43:58.250Z,99854.78
2022-09-13T01:46:52.442Z,99849.13
2022-09-13T01:49:45.190Z,99852.75
2022-09-13T01:52:35.010Z,99853.78
2022-09-13T01:55:37.078Z,99848.94
2022-09-13T01:58:38.399Z,99838.63
2022-09-13T02:01:32.251Z,99837.41
2022-09-13T02:04:14.836Z,99841.13
2022-09-13T02:07:09.083Z,99835.88
2022-09-13T02:09:40.488Z,99843.13
2022-09-13T02:12:14.280Z,99836.78
2022-09-13T02:14:44.750Z,99839.84
2022-09-13T02:17:22.634Z,99832.59
2022-09-13T02:19:56.498Z,99836.31
2022-09-13T02:22:32.237Z,99834.94
2022-09-13T02:25:10.590Z,99828.16
2022-09-13T02:27:39.366Z,99826.94
2022-09-13T02:30:09.001Z,99830.12
2022-09-13T02:32:40.679Z,99834.37
2022-09-13T02:35:22.923Z,99821.34
2022-09-13T02:37:58.510Z,99827.84
2022-09-13T02:40:35.240Z,99820.50
2022-09-13T02:43:08.912Z,99819.28
2022-09-13T02:45:44.845Z,99828.47
2022-09-13T02:48:23.810Z,99814.59
2022-09-13T02:51:08.386Z,99812.78
2022-09-13T02:53:50.398Z,99818.13
2022-09-13T02:56:25.625Z,99814.84
2022-09-13T02:59:20.145Z,99812.81
2022-09-13T03:01:52.539Z,99810.50
2022-09-13T03:04:19.984Z,99802.72
2022-09-13T03:06:49.603Z,99809.97
2022-09-13T03:09:17.320Z,99800.97
2022-09-13T03:12:22.666Z,99797.34
2022-09-13T03:15:13.843Z,99800.34
2022-09-13T03:17:45.861Z,99798.34
2022-09-13T03:20:23.251Z,99795.97
2022-09-13T03:23:15.431Z,99794.75
2022-09-13T03:25:59.286Z,99798.00
2022-09-13T03:28:32.499Z,99793.25
2022-09-13T03:31:08.051Z,99792.19
2022-09-13T03:33:46.638Z,99795.13
2022-09-13T03:36:21.795Z,99786.38
2022-09-13T03:39:05.834Z,99788.91
2022-09-13T03:41:37.394Z,99786.66
2022-09-13T03:44:08.104Z,99788.00
2022-09-13T03:46:39.151Z,99781.03
2022-09-13T03:49:13.188Z,99787.09
2022-09-13T03:51:42.096Z,99788.75
2022-09-13T03:54:18.615Z,99781.13
2022-09-13T03:57:11.367Z,99790.16
2022-09-13T03:59:42.183Z,99781.38
2022-09-13T04:02:11.793Z,99776.84
2022-09-13T04:04:40.817Z,99784.28
2022-09-13T04:07:09.794Z,99785.00
2022-09-13T04:09:37.155Z,99788.94
2022-09-13T04:12:05.104Z,99781.88
2022-09-13T04:14:33.603Z,99782.44
2022-09-13T04:17:01.129Z,99791.41
2022-09-13T04:19:28.760Z,99796.16
2022-09-13T04:21:56.308Z,99790.22
2022-09-13T04:24:28.206Z,99790.53
2022-09-13T04:26:56.423Z,99797.03
2022-09-13T04:29:25.679Z,99793.63
2022-09-13T04:31:54.419Z,99795.03
2022-09-13T04:34:23.573Z,99790.06
2022-09-13T04:36:52.527Z,99796.31
2022-09-13T04:39:20.933Z,99793.50
2022-09-13T04:41:49.128Z,99785.84
2022-09-13T04:44:17.570Z,99794.56
2022-09-13T04:46:48.272Z,99787.41
2022-09-13T04:49:17.488Z,99789.06
2022-09-13T04:51:44.927Z,99798.38
2022-09-13T04:54:15.504Z,99794.09
2022-09-13T04:56:47.171Z,99793.75
2022-09-13T04:59:14.650Z,99801.44
2022-09-13T05:01:42.437Z,99799.22
2022-09-13T05:04:10.483Z,99805.38
2022-09-13T05:06:38.272Z,99804.56
2022-09-13T05:09:05.807Z,99800.09
2022-09-13T05:11:33.583Z,99797.56
2022-09-13T05:14:01.257Z,99800.22
2022-09-13T05:16:31.040Z,99798.31
2022-09-13T05:18:59.128Z,99794.13
2022-09-13T05:21:27.889Z,99803.13
2022-09-13T05:23:56.591Z,99812.47
2022-09-13T05:26:27.153Z,99803.13
2022-09-13T05:28:54.668Z,99803.75
2022-09-13T05:31:30.827Z,99797.00
2022-09-13T05:34:01.591Z,99802.44
2022-09-13T05:36:29.293Z,99799.75
2022-09-13T05:39:12.561Z,99806.81
2022-09-13T05:41:46.170Z,99804.50
2022-09-13T05:44:14.377Z,99803.66
2022-09-13T05:46:42.884Z,99798.91
2022-09-13T05:49:12.736Z,99799.25
2022-09-13T05:51:40.374Z,99806.47
2022-09-13T05:54:08.462Z,99804.38
2022-09-13T05:56:36.333Z,99807.75
2022-09-13T05:59:03.689Z,99806.38
2022-09-13T06:01:31.610Z,99799.66
2022-09-13T06:03:59.712Z,99813.16
2022-09-13T06:06:27.597Z,99818.75
2022-09-13T06:08:56.323Z,99816.69
2022-09-13T06:11:25.686Z,99808.88
2022-09-13T06:13:53.528Z,99811.94
2022-09-13T06:16:21.527Z,99807.25
2022-09-13T06:18:50.114Z,99803.41
2022-09-13T06:21:20.451Z,99803.44
2022-09-13T06:23:52.806Z,99812.66
2022-09-13T06:26:26.146Z,99806.78
2022-09-13T06:28:55.329Z,99808.16
2022-09-13T06:31:24.902Z,99799.75
2022-09-13T06:34:00.977Z,99801.72
2022-09-13T06:36:28.950Z,99806.06
2022-09-13T06:38:57.183Z,99798.56
2022-09-13T06:41:24.971Z,99802.53
2022-09-13T06:43:57.869Z,99797.53
2022-09-13T06:46:27.140Z,99794.81
2022-09-13T06:48:54.916Z,99801.72
2022-09-13T06:51:24.044Z,99791.97
2022-09-13T06:53:55.846Z,99797.13
2022-09-13T06:56:34.800Z,99793.00
2022-09-13T06:59:05.030Z,99798.28
2022-09-13T07:01:36.311Z,99792.88
2022-09-13T07:04:09.394Z,99803.25
2022-09-13T07:06:42.026Z,99809.00
2022-09-13T07:09:12.896Z,99805.00
2022-09-13T07:11:42.090Z,99804.63
2022-09-13T07:14:13.540Z,99805.19
2022-09-13T07:16:41.228Z,99798.47
2022-09-13T07:19:20.144Z,99806.06
2022-09-13T07:21:49.881Z,99804.44
2022-09-13T07:24:18.301Z,99809.28
2022-09-13T07:26:46.795Z,99810.87
2022-09-13T07:29:17.012Z,99811.47
2022-09-13T07:31:46.126Z,99814.66
2022-09-13T07:34:16.063Z,99814.59
2022-09-13T07:36:44.905Z,99813.88
2022-09-13T07:39:16.359Z,99808.34
2022-09-13T07:41:46.970Z,99810.22
2022-09-13T07:44:14.501Z,99810.00
2022-09-13T07:46:43.573Z,99809.03
2022-09-13T07:49:18.171Z,99817.72
2022-09-13T07:51:45.573Z,99821.72
2022-09-13T07:54:15.473Z,99807.50
2022-09-13T07:56:42.993Z,99818.41
2022-09-13T07:59:15.266Z,99815.56
2022-09-13T08:01:45.692Z,99809.78
2022-09-13T08:04:17.711Z,99816.63
2022-09-13T08:06:46.896Z,99811.75
2022-09-13T08:09:15.528Z,99816.63
2022-09-13T08:11:47.925Z,99811.56
2022-09-13T08:14:17.233Z,99816.19
2022-09-13T08:16:45.008Z,99817.06
2022-09-13T08:19:14.963Z,99805.13
2022-09-13T08:21:43.605Z,99814.75
2022-09-13T08:24:19.144Z,99817.84
2022-09-13T08:26:47.762Z,99813.41
2022-09-13T08:29:15.949Z,99807.34
2022-09-13T08:31:43.598Z,99802.19
2022-09-13T08:34:14.667Z,99805.41
2022-09-13T08:36:42.538Z,99804.69
2022-09-13T08:39:12.899Z,99811.09
2022-09-13T08:41:42.056Z,99802.25
2022-09-13T08:44:13.981Z,99805.00
2022-09-13T08:46:45.528Z,99798.75
2022-09-13T08:49:38.061Z,99790.91
2022-09-13T08:52:18.815Z,99796.16
2022-09-13T08:54:46.425Z,99799.69
2022-09-13T08:57:25.541Z,99791.84
2022-09-13T09:00:04.611Z,99789.16
2022-09-13T09:03:12.938Z,99792.69
2022-09-13T09:05:49.091Z,99790.06
2022-09-13T09:08:25.815Z,99791.78
2022-09-13T09:10:54.999Z,99784.78
2022-09-13T09:13:33.086Z,99782.84
2022-09-13T09:16:05.350Z,99781.28
2022-09-13T09:18:36.641Z,99781.25
2022-09-13T09:21:04.888Z,99782.97
2022-09-13T09:23:39.081Z,99779.34
2022-09-13T09:26:18.983Z,99773.97
2022-09-13T09:29:11.357Z,99768.00
2022-09-13T09:31:59.696Z,99762.78
2022-09-13T09:35:05.573Z,99770.63
2022-09-13T09:37:35.176Z,99771.19
2022-09-13T09:40:08.116Z,99761.69
2022-09-13T09:42:45.097Z,99755.69
2022-09-13T09:45:26.757Z,99761.84
2022-09-13T09:47:55.774Z,99768.81
2022-09-13T09:50:28.151Z,99755.53
2022-09-13T09:52:59.805Z,99750.00
2022-09-13T09:55:37.930Z,99742.00
2022-09-13T09:58:11.415Z,99739.00
2022-09-13T10:00:52.647Z,99733.19
2022-09-13T10:03:24.505Z,99742.09
2022-09-13T10:05:52.026Z,99728.75
2022-09-13T10:08:28.581Z,99731.97
2022-09-13T10:10:57.800Z,99709.31
2022-09-13T10:13:31.043Z,99710.69
2022-09-13T10:16:07.686Z,99707.56
2022-09-13T10:18:44.573Z,99714.66
2022-09-13T10:21:26.220Z,99720.69
2022-09-13T10:24:17.562Z,99715.00
2022-09-13T10:26:45.759Z,99705.31
2022-09-13T10:29:15.681Z,99708.84
2022-09-13T10:31:45.584Z,99697.13
2022-09-13T10:34:45.372Z,99694.56
2022-09-13T10:37:17.765Z,99696.50
2022-09-13T10:40:13.452Z,99692.56
2022-09-13T10:42:41.064Z,99688.91
2022-09-13T10:45:09.673Z,99685.78
2022-09-13T10:48:05.096Z,99692.41
2022-09-13T10:50:33.676Z,99685.53
2022-09-13T10:53:02.048Z,99691.78
2022-09-13T10:55:31.291Z,99694.03
2022-09-13T10:58:01.956Z,99699.19
2022-09-13T11:01:06.518Z,99693.94
2022-09-13T11:03:52.963Z,99692.78
2022-09-13T11:06:25.790Z,99692.19
2022-09-13T11:09:16.246Z,99690.53
2022-09-13T11:11:57.315Z,99687.59
2022-09-13T11:14:34.275Z,99675.97
2022-09-13T11:17:33.802Z,99673.16
2022-09-13T11:20:05.582Z,99682.72
2022-09-13T11:22:32.942Z,99679.09
2022-09-13T11:25:10.101Z,99679.00
2022-09-13T11:28:06.742Z,99678.88
2022-09-13T11:31:02.357Z,99675.25
2022-09-13T11:33:41.492Z,99672.03
2022-09-13T11:36:43.121Z,99667.94
2022-09-13T11:39:26.456Z,99658.91
2022-09-13T11:42:36.241Z,99652.91
2022-09-13T11:45:20.714Z,99648.41
2022-09-13T11:48:04.943Z,99651.97
2022-09-13T11:50:39.848Z,99650.63
2022-09-13T11:53:25.916Z,99642.87
2022-09-13T11:56:05.290Z,99644.13
2022-09-13T11:58:38.329Z,99638.09
2022-09-13T12:01:11.975Z,99630.66
2022-09-13T12:03:49.214Z,99629.84
2022-09-13T12:06:24.822Z,99635.84
2022-09-13T12:09:02.045Z,99643.69
2022-09-13T12:11:35.292Z,99639.12
2022-09-13T12:14:05.887Z,99633.31
2022-09-13T12:16:55.094Z,99637.63
2022-09-13T12:19:27.505Z,99623.28
2022-09-13T12:22:00.118Z,99626.47
2022-09-13T12:24:47.686Z,99620.69
2022-09-13T12:27:37.714Z,99622.13
2022-09-13T12:30:15.992Z,99623.31
2022-09-13T12:32:47.960Z,99607.75
2022-09-13T12:35:59.977Z,99613.34
2022-09-13T12:38:40.707Z,99606.88
2022-09-13T12:41:42.890Z,99607.03
2022-09-13T12:44:16.210Z,99607.88
2022-09-13T12:47:01.944Z,99617.34
2022-09-13T12:50:15.096Z,99606.25
2022-09-13T12:52:57.687Z,99600.72
2022-09-13T12:55:46.012Z,99600.22
2022-09-13T12:58:14.826Z,99598.50
2022-09-13T13:00:59.983Z,99603.69
2022-09-13T13:03:31.678Z,99594.88
2022-09-13T13:06:24.395Z,99589.44
2022-09-13T13:08:53.986Z,99588.75
2022-09-13T13:11:27.086Z,99593.22
2022-09-13T13:14:09.300Z,99589.66
2022-09-13T13:16:40.738Z,99592.81
2022-09-13T13:19:29.160Z,99591.53
2022-09-13T13:21:56.671Z,99588.66
2022-09-13T13:24:24.275Z,99588.25
2022-09-13T13:26:56.671Z,99579.97
2022-09-13T13:29:27.407Z,99581.94
2022-09-13T13:31:57.667Z,99591.19
2022-09-13T13:34:32.069Z,99578.56
2022-09-13T13:37:10.472Z,99579.56
2022-09-13T13:39:44.700Z,99563.59
2022-09-13T13:42:38.290Z,99559.31
2022-09-13T13:45:25.723Z,99565.06
2022-09-13T13:48:11.357Z,99563.03
2022-09-13T13:51:17.120Z,99559.19
2022-09-13T13:53:57.596Z,99551.72
2022-09-13T13:56:35.582Z,99559.44
2022-09-13T13:59:16.226Z,99561.56
2022-09-13T14:01:47.399Z,99567.03
2022-09-13T14:04:34.390Z,99559.28
2022-09-13T14:07:19.528Z,99563.06
2022-09-13T14:09:53.058Z,99554.44
2022-09-13T14:12:53.511Z,99546.88
2022-09-13T14:15:54.324Z,99555.34
2022-09-13T14:18:30.703Z,99546.84
2022-09-13T14:21:09.581Z,99548.78
2022-09-13T14:23:37.238Z,99546.72
2022-09-13T14:26:06.087Z,99540.75
2022-09-13T14:28:33.543Z,99536.63
2022-09-13T14:31:00.924Z,99530.91
2022-09-13T14:33:37.414Z,99532.31
2022-09-13T14:36:16.579Z,99533.34
2022-09-13T14:38:55.372Z,99530.44
2022-09-13T14:41:31.292Z,99530.44
2022-09-13T14:44:22.544Z,99533.59
2022-09-13T14:47:02.008Z,99523.19
2022-09-13T14:49:34.605Z,99524.22
2022-09-13T14:52:20.806Z,99521.81
2022-09-13T14:54:52.710Z,99517.06
2022-09-13T14:57:33.936Z,99517.47
2022-09-13T15:00:09.648Z,99502.81
2022-09-13T15:02:39.223Z,99503.72
2022-09-13T15:05:14.277Z,99507.41
2022-09-13T15:07:42.329Z,99513.37
2022-09-13T15:10:13.091Z,99515.44
2022-09-13T15:12:55.546Z,99510.94
2022-09-13T15:15:26.286Z,99500.63
2022-09-13T15:17:59.883Z,99497.16
2022-09-13T15:20:31.362Z,99503.66
2022-09-13T15:22:58.895Z,99505.28
2022-09-13T15:25:28.060Z,99495.81
2022-09-13T15:27:56.990Z,99496.31
2022-09-13T15:30:30.441Z,99493.75
2022-09-13T15:33:36.923Z,99489.47
2022-09-13T15:36:19.671Z,99486.81
2022-09-13T15:39:09.335Z,99487.25
2022-09-13T15:41:41.197Z,99479.47
2022-09-13T15:44:09.766Z,99482.25
2022-09-13T15:47:04.958Z,99482.69
2022-09-13T15:49:32.891Z,99477.81
2022-09-13T15:52:02.087Z,99477.59
2022-09-13T15:54:36.693Z,99478.53
2022-09-13T15:57:09.901Z,99485.88
2022-09-13T15:59:37.252Z,99471.72
2022-09-13T16:02:17.977Z,99472.12
2022-09-13T16:04:45.707Z,99467.00
2022-09-13T16:07:14.330Z,99458.84
2022-09-13T16:09:42.175Z,99454.34
2022-09-13T16:12:10.463Z,99454.59
2022-09-13T16:14:38.025Z,99451.94
2022-09-13T16:17:10.926Z,99454.38
2022-09-13T16:19:38.560Z,99448.59
2022-09-13T16:22:09.681Z,99444.97
2022-09-13T16:24:39.872Z,99447.06
2022-09-13T16:27:07.523Z,99447.72
2022-09-13T16:29:34.952Z,99446.16
2022-09-13T16:32:02.806Z,99445.37
2022-09-13T16:34:30.231Z,99439.97
2022-09-13T16:36:57.942Z,99439.56
2022-09-13T16:39:25.726Z,99441.22
2022-09-13T16:41:53.261Z,99450.03
2022-09-13T16:44:20.840Z,99443.03
2022-09-13T16:46:48.632Z,99436.31
2022-09-13T16:49:16.184Z,99437.72
2022-09-13T16:51:43.592Z,99440.97
2022-09-13T16:54:12.242Z,99443.66
2022-09-13T16:56:39.647Z,99448.78
2022-09-13T16:59:07.057Z,99445.44
2022-09-13T17:01:34.835Z,99443.50
2022-09-13T17:04:02.596Z,99444.44
2022-09-13T17:06:30.118Z,99445.59
2022-09-13T17:09:03.200Z,99445.56
2022-09-13T17:11:34.465Z,99445.50
2022-09-13T17:14:05.319Z,99444.84
2022-09-13T17:16:35.696Z,99462.59
2022-09-13T17:19:06.155Z,99460.13
2022-09-13T17:21:34.117Z,99458.56
2022-09-13T17:24:02.232Z,99457.16
2022-09-13T17:26:30.123Z,99456.78
2022-09-13T17:28:57.657Z,99457.41
2022-09-13T17:31:25.172Z,99456.66
2022-09-13T17:33:53.385Z,99464.28
2022-09-13T17:36:21.246Z,99461.81
2022-09-13T17:38:49.209Z,99454.22
2022-09-13T17:41:22.511Z,99453.47
2022-09-13T17:43:53.593Z,99456.34
2022-09-13T17:46:23.533Z,99450.06
2022-09-13T17:48:53.572Z,99449.41
2022-09-13T17:51:26.727Z,99450.28
2022-09-13T17:54:00.356Z,99452.47
2022-09-13T17:56:34.469Z,99451.53
2022-09-13T17:59:10.036Z,99446.16
2022-09-13T18:01:40.215Z,99455.84
2022-09-13T18:04:09.039Z,99453.44
2022-09-13T18:06:38.297Z,99462.97
2022-09-13T18:09:06.626Z,99455.78
2022-09-13T18:11:34.630Z,99458.69
2022-09-13T18:14:03.140Z,99458.75
2022-09-13T18:16:31.628Z,99459.56
2022-09-13T18:19:00.968Z,99460.47
2022-09-13T18:21:29.920Z,99459.69
2022-09-13T18:24:00.147Z,99461.34
2022-09-13T18:26:31.809Z,99471.19
2022-09-13T18:29:04.290Z,99473.91
2022-09-13T18:31:35.418Z,99480.00
2022-09-13T18:34:06.245Z,99475.72
2022-09-13T18:36:35.356Z,99487.19
2022-09-13T18:39:04.688Z,99488.94
2022-09-13T18:41:35.571Z,99485.47
2022-09-13T18:44:05.354Z,99485.47
2022-09-13T18:46:35.372Z,99497.56
2022-09-13T18:49:04.992Z,99498.50
2022-09-13T18:51:38.200Z,99492.31
2022-09-13T18:54:08.036Z,99493.34
2022-09-13T18:56:38.487Z,99496.84
2022-09-13T18:59:06.961Z,99499.47
2022-09-13T19:01:37.544Z,99504.75
2022-09-13T19:04:11.919Z,99488.97
2022-09-13T19:06:42.137Z,99494.22
2022-09-13T19:09:11.161Z,99494.22
2022-09-13T19:11:47.361Z,99496.81
2022-09-13T19:14:18.630Z,99489.84
2022-09-13T19:16:47.271Z,99488.94
2022-09-13T19:19:15.407Z,99488.06
2022-09-13T19:21:43.733Z,99487.12
2022-09-13T19:24:18.174Z,99491.47
2022-09-13T19:26:49.309Z,99489.69
2022-09-13T19:29:18.773Z,99496.75
2022-09-13T19:31:48.963Z,99503.66
2022-09-13T19:34:18.894Z,99503.66
2022-09-13T19:36:49.256Z,99489.44
2022-09-13T19:39:17.882Z,99496.41
2022-09-13T19:41:46.251Z,99495.75
2022-09-13T19:44:14.832Z,99487.00
2022-09-13T19:46:43.630Z,99493.13
2022-09-13T19:49:16.576Z,99491.19
2022-09-13T19:51:50.074Z,99483.28
2022-09-13T19:54:20.993Z,99476.22
2022-09-13T19:56:50.352Z,99490.09
2022-09-13T19:59:20.180Z,99483.56
2022-09-13T20:01:50.730Z,99488.88
2022-09-13T20:04:21.434Z,99484.34
2022-09-13T20:06:50.805Z,99483.44
2022-09-13T20:09:20.561Z,99481.72
2022-09-13T20:11:52.698Z,99486.81
2022-09-13T20:14:22.680Z,99488.59
2022-09-13T20:16:50.504Z,99486.88
2022-09-13T20:22:09.134Z,99493.44
2022-09-13T20:24:37.731Z,99489.72
2022-09-13T20:27:06.008Z,99489.47
2022-09-13T20:29:34.537Z,99487.88
2022-09-13T20:32:02.742Z,99481.84
2022-09-13T20:34:30.477Z,99478.47
2022-09-13T20:36:58.457Z,99484.72
2022-09-13T20:39:26.509Z,99490.63
2022-09-13T20:41:54.973Z,99488.19
2022-09-13T20:44:23.207Z,99476.81
2022-09-13T20:46:51.153Z,99487.41
2022-09-13T20:49:19.955Z,99483.88
2022-09-13T20:51:50.179Z,99476.91
2022-09-13T20:54:18.069Z,99477.00
2022-09-13T20:56:46.391Z,99481.50
2022-09-13T20:59:14.528Z,99472.00
2022-09-13T21:01:42.043Z,99473.75
2022-09-13T21:04:09.804Z,99479.94
2022-09-13T21:06:39.958Z,99485.06
2022-09-13T21:09:07.589Z,99475.56
2022-09-13T21:11:36.521Z,99466.03
2022-09-13T21:14:06.348Z,99463.16
2022-09-13T21:16:36.577Z,99470.47
2022-09-13T21:19:04.403Z,99468.91
2022-09-13T21:21:34.702Z,99465.47
2022-09-13T21:24:04.459Z,99467.25
2022-09-13T21:26:32.539Z,99460.47
2022-09-13T21:29:00.762Z,99458.38
2022-09-13T21:31:30.449Z,99462.81
2022-09-13T21:34:14.574Z,99456.75
2022-09-13T21:36:42.018Z,99461.09
2022-09-13T21:39:09.760Z,99463.12
2022-09-13T21:41:37.126Z,99452.44
2022-09-13T21:44:05.273Z,99450.31
2022-09-13T21:46:34.907Z,99448.66
2022-09-13T21:49:04.990Z,99457.34
2022-09-13T21:51:41.352Z,99466.38
2022-09-13T21:54:11.550Z,99462.97
2022-09-13T21:56:42.182Z,99454.50
2022-09-13T21:59:14.710Z,99450.22
2022-09-13T22:01:46.728Z,99454.72
2022-09-13T22:04:17.380Z,99466.97
2022-09-13T22:06:46.159Z,99453.72
2022-09-13T22:09:14.510Z,99449.22
2022-09-13T22:11:43.948Z,99451.97
2022-09-13T22:14:13.342Z,99440.59
2022-09-13T22:16:42.177Z,99442.31
2022-09-13T22:19:12.255Z,99440.31
2022-09-13T22:21:42.397Z,99436.19
2022-09-13T22:24:14.246Z,99430.50
2022-09-13T22:26:41.969Z,99424.41
2022-09-13T22:29:09.931Z,99426.34
2022-09-13T22:31:40.032Z,99427.56
2022-09-13T22:34:08.478Z,99428.75
2022-09-13T22:36:36.252Z,99431.81
2022-09-13T22:39:03.955Z,99430.97
2022-09-13T22:41:33.309Z,99424.09
2022-09-13T22:44:02.272Z,99431.91
2022-09-13T22:46:39.254Z,99428.13
2022-09-13T22:49:07.601Z,99423.81
2022-09-13T22:51:35.018Z,99427.94
2022-09-13T22:54:06.873Z,99432.62
2022-09-13T22:56:36.166Z,99425.78
2022-09-13T22:59:07.770Z,99432.84
2022-09-13T23:01:35.916Z,99420.16
2022-09-13T23:04:04.352Z,99421.37
2022-09-13T23:06:31.825Z,99424.06
2022-09-13T23:09:01.484Z,99429.34
2022-09-13T23:11:32.239Z,99431.25
2022-09-13T23:14:02.317Z,99421.13
2022-09-13T23:16:35.080Z,99427.94
2022-09-13T23:19:02.846Z,99426.31
2022-09-13T23:21:35.686Z,99423.63
2022-09-13T23:24:04.804Z,99426.22
2022-09-13T23:26:33.517Z,99425.06
2022-09-13T23:29:03.036Z,99423.00
2022-09-13T23:31:33.669Z,99421.56
2022-09-13T23:34:03.473Z,99419.03
2022-09-13T23:36:34.634Z,99438.81
2022-09-13T23:39:03.596Z,99429.91
2022-09-13T23:41:32.777Z,99424.91
2022-09-13T23:44:01.141Z,99432.16
2022-09-13T23:46:29.167Z,99430.66
2022-09-13T23:48:56.940Z,99436.09
2022-09-13T23:51:26.006Z,99423.72
2022-09-13T23:53:57.862Z,99426.41
2022-09-13T23:56:26.551Z,99419.97
2022-09-13T23:58:56.575Z,99418.12
